sensor_id;sensor_type;location;lat;lon;timestamp;P1;durP1;ratioP1;P2;durP2;ratioP2
3747;SDS011;1889;50.058;8.688;2022-11-15T00:01:42;4.22;;;3.50;;
3747;SDS011;1889;50.058;8.688;2022-11-15T00:04:11;4.00;;;3.60;;
3747;SDS011;1889;50.058;8.688;2022-11-15T00:06:41;5.37;;;3.58;;
3747;SDS011;1889;50.058;8.688;2022-11-15T00:09:10;4.35;;;3.35;;
3747;SDS011;1889;50.058;8.688;2022-11-15T00:11:39;5.65;;;3.65;;
3747;SDS011;1889;50.058;8.688;2022-11-15T00:14:09;4.35;;;3.30;;
3747;SDS011;1889;50.058;8.688;2022-11-15T00:16:38;4.80;;;3.47;;
3747;SDS011;1889;50.058;8.688;2022-11-15T00:19:07;4.72;;;3.85;;
3747;SDS011;1889;50.058;8.688;2022-11-15T00:21:37;4.25;;;3.20;;
3747;SDS011;1889;50.058;8.688;2022-11-15T00:24:06;3.75;;;3.22;;
3747;SDS011;1889;50.058;8.688;2022-11-15T00:26:35;4.55;;;3.60;;
3747;SDS011;1889;50.058;8.688;2022-11-15T00:29:04;3.85;;;3.00;;
3747;SDS011;1889;50.058;8.688;2022-11-15T00:31:34;4.78;;;3.25;;
3747;SDS011;1889;50.058;8.688;2022-11-15T00:34:03;4.05;;;3.50;;
3747;SDS011;1889;50.058;8.688;2022-11-15T00:36:33;5.40;;;3.65;;
3747;SDS011;1889;50.058;8.688;2022-11-15T00:39:05;3.58;;;3.22;;
3747;SDS011;1889;50.058;8.688;2022-11-15T00:41:34;5.40;;;3.87;;
3747;SDS011;1889;50.058;8.688;2022-11-15T00:44:03;4.78;;;3.30;;
3747;SDS011;1889;50.058;8.688;2022-11-15T00:46:33;3.58;;;3.15;;
3747;SDS011;1889;50.058;8.688;2022-11-15T00:49:02;3.58;;;3.00;;
3747;SDS011;1889;50.058;8.688;2022-11-15T00:51:31;4.37;;;3.45;;
3747;SDS011;1889;50.058;8.688;2022-11-15T00:54:01;4.40;;;3.52;;
3747;SDS011;1889;50.058;8.688;2022-11-15T00:56:30;4.22;;;3.35;;
3747;SDS011;1889;50.058;8.688;2022-11-15T00:58:59;5.03;;;3.15;;
3747;SDS011;1889;50.058;8.688;2022-11-15T01:01:28;4.03;;;3.33;;
3747;SDS011;1889;50.058;8.688;2022-11-15T01:03:58;3.70;;;3.20;;
3747;SDS011;1889;50.058;8.688;2022-11-15T01:06:27;3.75;;;3.35;;
3747;SDS011;1889;50.058;8.688;2022-11-15T01:08:56;4.60;;;3.62;;
3747;SDS011;1889;50.058;8.688;2022-11-15T01:11:27;3.70;;;3.30;;
3747;SDS011;1889;50.058;8.688;2022-11-15T01:13:56;3.80;;;3.30;;
3747;SDS011;1889;50.058;8.688;2022-11-15T01:16:26;5.22;;;3.30;;
3747;SDS011;1889;50.058;8.688;2022-11-15T01:18:55;3.92;;;3.27;;
3747;SDS011;1889;50.058;8.688;2022-11-15T01:21:24;5.85;;;2.90;;
3747;SDS011;1889;50.058;8.688;2022-11-15T01:23:54;3.60;;;3.30;;
3747;SDS011;1889;50.058;8.688;2022-11-15T01:26:24;6.12;;;3.52;;
3747;SDS011;1889;50.058;8.688;2022-11-15T01:28:54;4.97;;;3.72;;
3747;SDS011;1889;50.058;8.688;2022-11-15T01:31:23;4.72;;;3.40;;
3747;SDS011;1889;50.058;8.688;2022-11-15T01:33:52;3.42;;;2.70;;
3747;SDS011;1889;50.058;8.688;2022-11-15T01:36:22;3.80;;;3.40;;
3747;SDS011;1889;50.058;8.688;2022-11-15T01:38:54;5.42;;;3.40;;
3747;SDS011;1889;50.058;8.688;2022-11-15T01:41:26;4.40;;;3.08;;
3747;SDS011;1889;50.058;8.688;2022-11-15T01:44:28;4.90;;;3.20;;
3747;SDS011;1889;50.058;8.688;2022-11-15T01:46:46;4.45;;;2.92;;
3747;SDS011;1889;50.058;8.688;2022-11-15T01:49:17;4.12;;;3.10;;
3747;SDS011;1889;50.058;8.688;2022-11-15T01:51:48;3.30;;;3.00;;
3747;SDS011;1889;50.058;8.688;2022-11-15T01:54:18;3.15;;;2.85;;
3747;SDS011;1889;50.058;8.688;2022-11-15T01:56:55;5.05;;;2.90;;
3747;SDS011;1889;50.058;8.688;2022-11-15T01:59:24;4.50;;;2.77;;
3747;SDS011;1889;50.058;8.688;2022-11-15T02:01:54;3.62;;;3.17;;
3747;SDS011;1889;50.058;8.688;2022-11-15T02:04:28;3.47;;;3.08;;
3747;SDS011;1889;50.058;8.688;2022-11-15T02:06:59;3.25;;;2.95;;
3747;SDS011;1889;50.058;8.688;2022-11-15T02:09:31;3.35;;;3.05;;
3747;SDS011;1889;50.058;8.688;2022-11-15T02:12:00;3.95;;;2.98;;
3747;SDS011;1889;50.058;8.688;2022-11-15T02:14:30;4.28;;;2.90;;
3747;SDS011;1889;50.058;8.688;2022-11-15T02:28:28;3.80;;;3.22;;
3747;SDS011;1889;50.058;8.688;2022-11-15T02:34:11;4.65;;;3.20;;
3747;SDS011;1889;50.058;8.688;2022-11-15T02:36:56;4.25;;;2.85;;
3747;SDS011;1889;50.058;8.688;2022-11-15T02:42:35;5.22;;;3.30;;
3747;SDS011;1889;50.058;8.688;2022-11-15T02:45:09;6.65;;;3.00;;
3747;SDS011;1889;50.058;8.688;2022-11-15T02:47:42;5.65;;;3.12;;
3747;SDS011;1889;50.058;8.688;2022-11-15T02:50:13;4.20;;;2.95;;
3747;SDS011;1889;50.058;8.688;2022-11-15T02:52:45;7.47;;;3.10;;
3747;SDS011;1889;50.058;8.688;2022-11-15T02:55:25;4.20;;;2.90;;
3747;SDS011;1889;50.058;8.688;2022-11-15T03:00:40;3.30;;;3.00;;
3747;SDS011;1889;50.058;8.688;2022-11-15T03:03:36;3.02;;;2.70;;
3747;SDS011;1889;50.058;8.688;2022-11-15T03:06:28;8.13;;;2.85;;
3747;SDS011;1889;50.058;8.688;2022-11-15T03:09:39;3.12;;;2.80;;
3747;SDS011;1889;50.058;8.688;2022-11-15T03:11:51;3.95;;;2.67;;
3747;SDS011;1889;50.058;8.688;2022-11-15T03:14:25;3.45;;;3.12;;
3747;SDS011;1889;50.058;8.688;2022-11-15T03:17:15;4.28;;;2.62;;
3747;SDS011;1889;50.058;8.688;2022-11-15T03:19:47;3.50;;;2.98;;
3747;SDS011;1889;50.058;8.688;2022-11-15T03:22:22;2.75;;;2.33;;
3747;SDS011;1889;50.058;8.688;2022-11-15T03:24:56;3.00;;;2.70;;
3747;SDS011;1889;50.058;8.688;2022-11-15T03:27:27;3.50;;;3.10;;
3747;SDS011;1889;50.058;8.688;2022-11-15T03:30:00;4.08;;;2.95;;
3747;SDS011;1889;50.058;8.688;2022-11-15T03:32:34;3.08;;;2.55;;
3747;SDS011;1889;50.058;8.688;2022-11-15T03:37:52;5.53;;;2.85;;
3747;SDS011;1889;50.058;8.688;2022-11-15T03:40:42;3.77;;;2.83;;
3747;SDS011;1889;50.058;8.688;2022-11-15T03:43:34;5.75;;;3.02;;
3747;SDS011;1889;50.058;8.688;2022-11-15T03:46:13;4.65;;;2.72;;
3747;SDS011;1889;50.058;8.688;2022-11-15T03:48:49;3.45;;;2.95;;
3747;SDS011;1889;50.058;8.688;2022-11-15T03:51:20;3.98;;;2.92;;
3747;SDS011;1889;50.058;8.688;2022-11-15T03:53:49;5.60;;;2.72;;
3747;SDS011;1889;50.058;8.688;2022-11-15T03:56:19;2.87;;;2.45;;
3747;SDS011;1889;50.058;8.688;2022-11-15T03:58:48;5.08;;;2.87;;
3747;SDS011;1889;50.058;8.688;2022-11-15T04:01:18;4.67;;;2.65;;
3747;SDS011;1889;50.058;8.688;2022-11-15T04:03:47;3.62;;;2.72;;
3747;SDS011;1889;50.058;8.688;2022-11-15T04:06:16;3.52;;;2.90;;
3747;SDS011;1889;50.058;8.688;2022-11-15T04:08:45;3.42;;;2.83;;
3747;SDS011;1889;50.058;8.688;2022-11-15T04:11:15;2.98;;;2.58;;
3747;SDS011;1889;50.058;8.688;2022-11-15T04:13:44;3.77;;;2.75;;
3747;SDS011;1889;50.058;8.688;2022-11-15T04:16:13;3.12;;;2.37;;
3747;SDS011;1889;50.058;8.688;2022-11-15T04:18:43;3.25;;;2.92;;
3747;SDS011;1889;50.058;8.688;2022-11-15T04:21:14;4.08;;;2.72;;
3747;SDS011;1889;50.058;8.688;2022-11-15T04:24:01;2.92;;;2.20;;
3747;SDS011;1889;50.058;8.688;2022-11-15T04:26:34;3.45;;;2.90;;
3747;SDS011;1889;50.058;8.688;2022-11-15T04:29:04;4.00;;;3.05;;
3747;SDS011;1889;50.058;8.688;2022-11-15T04:31:51;4.75;;;2.67;;
3747;SDS011;1889;50.058;8.688;2022-11-15T04:34:20;4.90;;;3.02;;
3747;SDS011;1889;50.058;8.688;2022-11-15T04:36:49;4.17;;;2.65;;
3747;SDS011;1889;50.058;8.688;2022-11-15T04:39:36;3.20;;;2.90;;
3747;SDS011;1889;50.058;8.688;2022-11-15T04:42:07;3.35;;;2.52;;
3747;SDS011;1889;50.058;8.688;2022-11-15T04:44:37;4.42;;;2.83;;
3747;SDS011;1889;50.058;8.688;2022-11-15T04:47:06;3.80;;;2.72;;
3747;SDS011;1889;50.058;8.688;2022-11-15T04:49:35;3.98;;;3.08;;
3747;SDS011;1889;50.058;8.688;2022-11-15T04:52:04;5.00;;;2.75;;
3747;SDS011;1889;50.058;8.688;2022-11-15T04:54:34;3.37;;;2.87;;
3747;SDS011;1889;50.058;8.688;2022-11-15T04:57:03;6.22;;;2.70;;
3747;SDS011;1889;50.058;8.688;2022-11-15T04:59:32;3.67;;;2.75;;
3747;SDS011;1889;50.058;8.688;2022-11-15T05:02:02;3.42;;;2.87;;
3747;SDS011;1889;50.058;8.688;2022-11-15T05:04:31;4.45;;;2.85;;
3747;SDS011;1889;50.058;8.688;2022-11-15T05:07:00;3.05;;;2.58;;
3747;SDS011;1889;50.058;8.688;2022-11-15T05:09:31;3.70;;;2.55;;
3747;SDS011;1889;50.058;8.688;2022-11-15T05:12:00;5.00;;;3.30;;
3747;SDS011;1889;50.058;8.688;2022-11-15T05:14:30;2.77;;;2.45;;
3747;SDS011;1889;50.058;8.688;2022-11-15T05:16:59;6.55;;;3.15;;
3747;SDS011;1889;50.058;8.688;2022-11-15T05:19:29;8.23;;;5.25;;
3747;SDS011;1889;50.058;8.688;2022-11-15T05:21:58;2.85;;;2.65;;
3747;SDS011;1889;50.058;8.688;2022-11-15T05:24:27;6.65;;;3.80;;
3747;SDS011;1889;50.058;8.688;2022-11-15T05:26:57;8.40;;;5.25;;
3747;SDS011;1889;50.058;8.688;2022-11-15T05:29:26;8.58;;;6.22;;
3747;SDS011;1889;50.058;8.688;2022-11-15T05:31:55;7.33;;;5.33;;
3747;SDS011;1889;50.058;8.688;2022-11-15T05:34:25;6.15;;;4.25;;
3747;SDS011;1889;50.058;8.688;2022-11-15T05:36:54;5.17;;;3.65;;
3747;SDS011;1889;50.058;8.688;2022-11-15T05:39:24;6.80;;;3.47;;
3747;SDS011;1889;50.058;8.688;2022-11-15T05:41:59;5.03;;;3.20;;
3747;SDS011;1889;50.058;8.688;2022-11-15T05:44:25;5.20;;;3.27;;
3747;SDS011;1889;50.058;8.688;2022-11-15T05:46:56;4.83;;;3.08;;
3747;SDS011;1889;50.058;8.688;2022-11-15T05:49:27;3.45;;;2.87;;
3747;SDS011;1889;50.058;8.688;2022-11-15T05:51:58;2.90;;;2.60;;
3747;SDS011;1889;50.058;8.688;2022-11-15T05:54:28;4.58;;;3.52;;
3747;SDS011;1889;50.058;8.688;2022-11-15T05:56:59;3.67;;;3.35;;
3747;SDS011;1889;50.058;8.688;2022-11-15T05:59:29;2.92;;;2.62;;
3747;SDS011;1889;50.058;8.688;2022-11-15T06:01:59;4.83;;;3.25;;
3747;SDS011;1889;50.058;8.688;2022-11-15T06:04:29;4.72;;;3.25;;
3747;SDS011;1889;50.058;8.688;2022-11-15T06:06:58;5.78;;;3.62;;
3747;SDS011;1889;50.058;8.688;2022-11-15T06:09:27;3.80;;;3.40;;
3747;SDS011;1889;50.058;8.688;2022-11-15T06:11:57;4.08;;;3.10;;
3747;SDS011;1889;50.058;8.688;2022-11-15T06:14:26;5.83;;;3.40;;
3747;SDS011;1889;50.058;8.688;2022-11-15T06:16:55;4.72;;;3.70;;
3747;SDS011;1889;50.058;8.688;2022-11-15T06:19:25;6.25;;;4.00;;
3747;SDS011;1889;50.058;8.688;2022-11-15T06:21:54;3.75;;;3.02;;
3747;SDS011;1889;50.058;8.688;2022-11-15T06:24:23;3.67;;;3.10;;
3747;SDS011;1889;50.058;8.688;2022-11-15T06:26:53;3.05;;;2.75;;
3747;SDS011;1889;50.058;8.688;2022-11-15T06:29:22;3.62;;;3.05;;
3747;SDS011;1889;50.058;8.688;2022-11-15T06:31:51;4.08;;;2.67;;
3747;SDS011;1889;50.058;8.688;2022-11-15T06:34:21;3.47;;;3.12;;
3747;SDS011;1889;50.058;8.688;2022-11-15T06:36:50;3.55;;;3.08;;
3747;SDS011;1889;50.058;8.688;2022-11-15T06:39:19;4.58;;;3.45;;
3747;SDS011;1889;50.058;8.688;2022-11-15T06:41:49;6.15;;;3.50;;
3747;SDS011;1889;50.058;8.688;2022-11-15T06:44:18;3.22;;;2.85;;
3747;SDS011;1889;50.058;8.688;2022-11-15T06:46:47;3.60;;;3.30;;
3747;SDS011;1889;50.058;8.688;2022-11-15T06:49:17;5.30;;;3.58;;
3747;SDS011;1889;50.058;8.688;2022-11-15T06:51:46;4.70;;;3.70;;
3747;SDS011;1889;50.058;8.688;2022-11-15T06:54:15;5.42;;;3.47;;
3747;SDS011;1889;50.058;8.688;2022-11-15T06:56:44;4.35;;;3.42;;
3747;SDS011;1889;50.058;8.688;2022-11-15T06:59:14;3.87;;;3.47;;
3747;SDS011;1889;50.058;8.688;2022-11-15T07:01:43;7.10;;;3.80;;
3747;SDS011;1889;50.058;8.688;2022-11-15T07:04:12;4.55;;;3.05;;
3747;SDS011;1889;50.058;8.688;2022-11-15T07:06:42;5.45;;;3.27;;
3747;SDS011;1889;50.058;8.688;2022-11-15T07:09:13;4.28;;;3.40;;
3747;SDS011;1889;50.058;8.688;2022-11-15T07:11:42;6.67;;;3.50;;
3747;SDS011;1889;50.058;8.688;2022-11-15T07:14:11;4.92;;;3.37;;
3747;SDS011;1889;50.058;8.688;2022-11-15T07:16:41;7.33;;;3.80;;
3747;SDS011;1889;50.058;8.688;2022-11-15T07:19:10;7.20;;;3.62;;
3747;SDS011;1889;50.058;8.688;2022-11-15T07:21:39;5.22;;;3.02;;
3747;SDS011;1889;50.058;8.688;2022-11-15T07:24:09;4.37;;;3.30;;
3747;SDS011;1889;50.058;8.688;2022-11-15T07:26:38;4.60;;;3.25;;
3747;SDS011;1889;50.058;8.688;2022-11-15T07:29:07;3.33;;;3.02;;
3747;SDS011;1889;50.058;8.688;2022-11-15T07:31:37;4.12;;;3.42;;
3747;SDS011;1889;50.058;8.688;2022-11-15T07:34:07;3.75;;;3.10;;
3747;SDS011;1889;50.058;8.688;2022-11-15T07:36:37;5.97;;;4.28;;
3747;SDS011;1889;50.058;8.688;2022-11-15T07:39:06;4.10;;;3.27;;
3747;SDS011;1889;50.058;8.688;2022-11-15T07:41:36;5.42;;;3.42;;
3747;SDS011;1889;50.058;8.688;2022-11-15T07:44:06;3.27;;;2.98;;
3747;SDS011;1889;50.058;8.688;2022-11-15T07:46:38;6.22;;;3.35;;
3747;SDS011;1889;50.058;8.688;2022-11-15T07:49:06;4.12;;;3.70;;
3747;SDS011;1889;50.058;8.688;2022-11-15T07:51:35;6.17;;;3.98;;
3747;SDS011;1889;50.058;8.688;2022-11-15T07:54:04;5.15;;;3.20;;
3747;SDS011;1889;50.058;8.688;2022-11-15T07:56:34;3.60;;;3.30;;
3747;SDS011;1889;50.058;8.688;2022-11-15T07:59:03;4.12;;;3.42;;
3747;SDS011;1889;50.058;8.688;2022-11-15T08:01:32;7.08;;;3.37;;
3747;SDS011;1889;50.058;8.688;2022-11-15T08:04:02;5.67;;;3.40;;
3747;SDS011;1889;50.058;8.688;2022-11-15T08:06:31;6.37;;;3.42;;
3747;SDS011;1889;50.058;8.688;2022-11-15T08:09:00;4.67;;;3.35;;
3747;SDS011;1889;50.058;8.688;2022-11-15T08:11:30;5.35;;;4.33;;
3747;SDS011;1889;50.058;8.688;2022-11-15T08:13:59;3.92;;;3.25;;
3747;SDS011;1889;50.058;8.688;2022-11-15T08:16:28;6.75;;;3.20;;
3747;SDS011;1889;50.058;8.688;2022-11-15T08:18:57;4.40;;;3.30;;
3747;SDS011;1889;50.058;8.688;2022-11-15T08:21:27;5.87;;;3.47;;
3747;SDS011;1889;50.058;8.688;2022-11-15T08:23:56;4.55;;;3.27;;
3747;SDS011;1889;50.058;8.688;2022-11-15T08:26:26;5.37;;;3.45;;
3747;SDS011;1889;50.058;8.688;2022-11-15T08:28:57;4.22;;;3.37;;
3747;SDS011;1889;50.058;8.688;2022-11-15T08:31:26;4.60;;;3.10;;
3747;SDS011;1889;50.058;8.688;2022-11-15T08:33:55;4.42;;;2.77;;
3747;SDS011;1889;50.058;8.688;2022-11-15T08:36:25;4.10;;;2.85;;
3747;SDS011;1889;50.058;8.688;2022-11-15T08:38:54;4.10;;;3.08;;
3747;SDS011;1889;50.058;8.688;2022-11-15T08:41:30;2.90;;;2.62;;
3747;SDS011;1889;50.058;8.688;2022-11-15T08:44:03;2.90;;;2.58;;
3747;SDS011;1889;50.058;8.688;2022-11-15T08:46:32;4.55;;;2.72;;
3747;SDS011;1889;50.058;8.688;2022-11-15T08:49:01;8.35;;;3.20;;
3747;SDS011;1889;50.058;8.688;2022-11-15T08:51:31;3.15;;;2.72;;
3747;SDS011;1889;50.058;8.688;2022-11-15T08:54:00;6.00;;;3.33;;
3747;SDS011;1889;50.058;8.688;2022-11-15T08:56:29;3.80;;;3.22;;
3747;SDS011;1889;50.058;8.688;2022-11-15T08:58:59;3.10;;;2.80;;
3747;SDS011;1889;50.058;8.688;2022-11-15T09:01:28;6.47;;;3.62;;
3747;SDS011;1889;50.058;8.688;2022-11-15T09:03:57;4.95;;;3.27;;
3747;SDS011;1889;50.058;8.688;2022-11-15T09:06:27;6.47;;;3.37;;
3747;SDS011;1889;50.058;8.688;2022-11-15T09:08:56;4.00;;;3.27;;
3747;SDS011;1889;50.058;8.688;2022-11-15T09:11:26;5.60;;;3.58;;
3747;SDS011;1889;50.058;8.688;2022-11-15T09:13:55;4.35;;;3.47;;
3747;SDS011;1889;50.058;8.688;2022-11-15T09:16:24;3.95;;;3.27;;
3747;SDS011;1889;50.058;8.688;2022-11-15T09:18:54;4.65;;;2.98;;
3747;SDS011;1889;50.058;8.688;2022-11-15T09:21:23;3.27;;;2.98;;
3747;SDS011;1889;50.058;8.688;2022-11-15T09:23:52;3.87;;;3.45;;
3747;SDS011;1889;50.058;8.688;2022-11-15T09:26:22;4.78;;;3.20;;
3747;SDS011;1889;50.058;8.688;2022-11-15T09:28:51;5.87;;;3.25;;
3747;SDS011;1889;50.058;8.688;2022-11-15T09:31:20;3.92;;;3.20;;
3747;SDS011;1889;50.058;8.688;2022-11-15T09:33:50;4.55;;;3.92;;
3747;SDS011;1889;50.058;8.688;2022-11-15T09:36:19;5.60;;;4.12;;
3747;SDS011;1889;50.058;8.688;2022-11-15T09:38:48;5.95;;;3.05;;
3747;SDS011;1889;50.058;8.688;2022-11-15T09:41:32;4.60;;;3.17;;
3747;SDS011;1889;50.058;8.688;2022-11-15T09:44:59;4.70;;;3.72;;
3747;SDS011;1889;50.058;8.688;2022-11-15T09:49:45;3.20;;;2.90;;
3747;SDS011;1889;50.058;8.688;2022-11-15T09:52:16;6.03;;;4.35;;
3747;SDS011;1889;50.058;8.688;2022-11-15T09:54:48;6.87;;;3.87;;
3747;SDS011;1889;50.058;8.688;2022-11-15T09:57:40;5.50;;;3.75;;
3747;SDS011;1889;50.058;8.688;2022-11-15T10:00:15;4.83;;;4.05;;
3747;SDS011;1889;50.058;8.688;2022-11-15T10:05:43;3.35;;;3.05;;
3747;SDS011;1889;50.058;8.688;2022-11-15T10:08:23;5.15;;;3.55;;
3747;SDS011;1889;50.058;8.688;2022-11-15T10:10:57;3.83;;;3.15;;
3747;SDS011;1889;50.058;8.688;2022-11-15T10:13:30;5.42;;;3.12;;
3747;SDS011;1889;50.058;8.688;2022-11-15T10:16:15;3.87;;;2.92;;
3747;SDS011;1889;50.058;8.688;2022-11-15T10:22:00;7.75;;;3.22;;
3747;SDS011;1889;50.058;8.688;2022-11-15T10:24:34;3.55;;;3.10;;
3747;SDS011;1889;50.058;8.688;2022-11-15T10:27:12;3.65;;;3.12;;
3747;SDS011;1889;50.058;8.688;2022-11-15T10:29:44;5.17;;;3.42;;
3747;SDS011;1889;50.058;8.688;2022-11-15T10:32:16;4.62;;;3.30;;
3747;SDS011;1889;50.058;8.688;2022-11-15T10:34:47;3.95;;;3.17;;
3747;SDS011;1889;50.058;8.688;2022-11-15T10:37:28;4.17;;;3.27;;
3747;SDS011;1889;50.058;8.688;2022-11-15T10:40:05;3.87;;;3.47;;
3747;SDS011;1889;50.058;8.688;2022-11-15T10:42:37;3.50;;;3.17;;
3747;SDS011;1889;50.058;8.688;2022-11-15T10:45:25;4.35;;;3.20;;
3747;SDS011;1889;50.058;8.688;2022-11-15T10:50:45;3.52;;;2.90;;
3747;SDS011;1889;50.058;8.688;2022-11-15T10:53:20;3.58;;;3.27;;
3747;SDS011;1889;50.058;8.688;2022-11-15T10:55:55;4.45;;;3.30;;
3747;SDS011;1889;50.058;8.688;2022-11-15T10:58:31;5.95;;;3.33;;
3747;SDS011;1889;50.058;8.688;2022-11-15T11:04:04;4.55;;;3.20;;
3747;SDS011;1889;50.058;8.688;2022-11-15T11:06:51;4.65;;;3.33;;
3747;SDS011;1889;50.058;8.688;2022-11-15T11:11:55;3.58;;;3.20;;
3747;SDS011;1889;50.058;8.688;2022-11-15T11:14:31;3.52;;;2.87;;
3747;SDS011;1889;50.058;8.688;2022-11-15T11:17:10;3.37;;;2.83;;
3747;SDS011;1889;50.058;8.688;2022-11-15T11:19:56;4.92;;;3.27;;
3747;SDS011;1889;50.058;8.688;2022-11-15T11:22:40;3.58;;;2.90;;
3747;SDS011;1889;50.058;8.688;2022-11-15T11:30:49;4.85;;;3.05;;
3747;SDS011;1889;50.058;8.688;2022-11-15T11:33:44;2.77;;;2.58;;
3747;SDS011;1889;50.058;8.688;2022-11-15T11:36:26;3.50;;;2.70;;
3747;SDS011;1889;50.058;8.688;2022-11-15T11:39:24;3.65;;;2.95;;
3747;SDS011;1889;50.058;8.688;2022-11-15T11:42:31;3.67;;;2.47;;
3747;SDS011;1889;50.058;8.688;2022-11-15T11:47:58;3.30;;;2.65;;
3747;SDS011;1889;50.058;8.688;2022-11-15T11:50:23;3.55;;;3.02;;
3747;SDS011;1889;50.058;8.688;2022-11-15T11:52:56;3.22;;;2.90;;
3747;SDS011;1889;50.058;8.688;2022-11-15T11:55:31;4.28;;;2.90;;
3747;SDS011;1889;50.058;8.688;2022-11-15T11:58:26;2.80;;;2.30;;
3747;SDS011;1889;50.058;8.688;2022-11-15T12:01:14;3.15;;;2.60;;
3747;SDS011;1889;50.058;8.688;2022-11-15T12:03:49;4.03;;;2.55;;
3747;SDS011;1889;50.058;8.688;2022-11-15T12:09:04;3.80;;;2.62;;
3747;SDS011;1889;50.058;8.688;2022-11-15T12:11:49;3.70;;;2.50;;
3747;SDS011;1889;50.058;8.688;2022-11-15T12:17:02;2.60;;;2.40;;
3747;SDS011;1889;50.058;8.688;2022-11-15T12:19:32;2.75;;;2.50;;
3747;SDS011;1889;50.058;8.688;2022-11-15T12:22:28;3.05;;;2.08;;
3747;SDS011;1889;50.058;8.688;2022-11-15T12:24:45;2.37;;;1.90;;
3747;SDS011;1889;50.058;8.688;2022-11-15T12:27:17;2.98;;;2.50;;
3747;SDS011;1889;50.058;8.688;2022-11-15T12:29:57;3.00;;;2.70;;
3747;SDS011;1889;50.058;8.688;2022-11-15T12:32:39;4.53;;;2.75;;
3747;SDS011;1889;50.058;8.688;2022-11-15T12:38:00;3.35;;;2.15;;
3747;SDS011;1889;50.058;8.688;2022-11-15T12:40:31;2.98;;;2.60;;
3747;SDS011;1889;50.058;8.688;2022-11-15T12:45:35;5.45;;;2.30;;
3747;SDS011;1889;50.058;8.688;2022-11-15T12:58:48;4.08;;;2.30;;
3747;SDS011;1889;50.058;8.688;2022-11-15T13:07:01;2.42;;;1.57;;
3747;SDS011;1889;50.058;8.688;2022-11-15T13:12:52;1.87;;;1.67;;
3747;SDS011;1889;50.058;8.688;2022-11-15T13:17:31;1.37;;;1.22;;
3747;SDS011;1889;50.058;8.688;2022-11-15T13:22:44;1.85;;;1.22;;
3747;SDS011;1889;50.058;8.688;2022-11-15T13:25:27;1.82;;;1.70;;
3747;SDS011;1889;50.058;8.688;2022-11-15T13:28:42;1.75;;;1.27;;
3747;SDS011;1889;50.058;8.688;2022-11-15T13:36:08;1.37;;;1.15;;
3747;SDS011;1889;50.058;8.688;2022-11-15T13:39:00;1.42;;;1.27;;
3747;SDS011;1889;50.058;8.688;2022-11-15T13:41:35;1.52;;;1.10;;
3747;SDS011;1889;50.058;8.688;2022-11-15T13:44:17;1.37;;;1.22;;
3747;SDS011;1889;50.058;8.688;2022-11-15T13:46:39;2.25;;;1.15;;
3747;SDS011;1889;50.058;8.688;2022-11-15T13:49:09;2.47;;;1.42;;
3747;SDS011;1889;50.058;8.688;2022-11-15T13:51:49;1.62;;;1.20;;
3747;SDS011;1889;50.058;8.688;2022-11-15T13:54:25;3.00;;;1.40;;
3747;SDS011;1889;50.058;8.688;2022-11-15T13:57:08;2.10;;;1.30;;
3747;SDS011;1889;50.058;8.688;2022-11-15T13:59:44;1.37;;;1.25;;
3747;SDS011;1889;50.058;8.688;2022-11-15T14:02:20;2.17;;;1.47;;
3747;SDS011;1889;50.058;8.688;2022-11-15T14:04:52;2.30;;;1.12;;
3747;SDS011;1889;50.058;8.688;2022-11-15T14:07:25;3.17;;;1.72;;
3747;SDS011;1889;50.058;8.688;2022-11-15T14:09:56;1.50;;;1.10;;
3747;SDS011;1889;50.058;8.688;2022-11-15T14:12:29;3.37;;;1.40;;
3747;SDS011;1889;50.058;8.688;2022-11-15T14:15:02;3.50;;;1.25;;
3747;SDS011;1889;50.058;8.688;2022-11-15T14:17:49;2.40;;;1.50;;
3747;SDS011;1889;50.058;8.688;2022-11-15T14:20:20;1.80;;;1.60;;
3747;SDS011;1889;50.058;8.688;2022-11-15T14:23:02;1.50;;;1.40;;
3747;SDS011;1889;50.058;8.688;2022-11-15T14:25:34;2.40;;;1.55;;
3747;SDS011;1889;50.058;8.688;2022-11-15T14:30:42;1.40;;;1.30;;
3747;SDS011;1889;50.058;8.688;2022-11-15T14:33:31;1.85;;;1.20;;
3747;SDS011;1889;50.058;8.688;2022-11-15T14:36:06;3.83;;;1.62;;
3747;SDS011;1889;50.058;8.688;2022-11-15T14:38:34;4.78;;;2.02;;
3747;SDS011;1889;50.058;8.688;2022-11-15T14:41:04;1.70;;;1.60;;
3747;SDS011;1889;50.058;8.688;2022-11-15T14:43:33;4.72;;;2.45;;
3747;SDS011;1889;50.058;8.688;2022-11-15T14:46:02;3.85;;;2.95;;
3747;SDS011;1889;50.058;8.688;2022-11-15T14:48:32;2.67;;;2.12;;
3747;SDS011;1889;50.058;8.688;2022-11-15T14:51:07;2.70;;;2.20;;
3747;SDS011;1889;50.058;8.688;2022-11-15T14:53:34;3.83;;;2.67;;
3747;SDS011;1889;50.058;8.688;2022-11-15T14:56:03;3.02;;;2.40;;
3747;SDS011;1889;50.058;8.688;2022-11-15T14:58:33;3.47;;;2.10;;
3747;SDS011;1889;50.058;8.688;2022-11-15T15:01:13;4.15;;;3.55;;
3747;SDS011;1889;50.058;8.688;2022-11-15T15:03:45;4.03;;;2.98;;
3747;SDS011;1889;50.058;8.688;2022-11-15T15:06:15;3.67;;;3.20;;
3747;SDS011;1889;50.058;8.688;2022-11-15T15:08:45;6.25;;;5.65;;
3747;SDS011;1889;50.058;8.688;2022-11-15T15:11:19;5.28;;;4.62;;
3747;SDS011;1889;50.058;8.688;2022-11-15T15:13:51;5.30;;;4.25;;
3747;SDS011;1889;50.058;8.688;2022-11-15T15:16:23;5.33;;;3.75;;
3747;SDS011;1889;50.058;8.688;2022-11-15T15:18:52;7.50;;;4.78;;
3747;SDS011;1889;50.058;8.688;2022-11-15T15:21:22;7.47;;;4.90;;
3747;SDS011;1889;50.058;8.688;2022-11-15T15:23:54;8.88;;;5.17;;
3747;SDS011;1889;50.058;8.688;2022-11-15T15:26:23;6.55;;;3.67;;
3747;SDS011;1889;50.058;8.688;2022-11-15T15:28:53;5.47;;;3.60;;
3747;SDS011;1889;50.058;8.688;2022-11-15T15:31:22;6.12;;;2.83;;
3747;SDS011;1889;50.058;8.688;2022-11-15T15:33:51;3.75;;;3.37;;
3747;SDS011;1889;50.058;8.688;2022-11-15T15:36:21;4.62;;;3.22;;
3747;SDS011;1889;50.058;8.688;2022-11-15T15:38:50;3.02;;;2.72;;
3747;SDS011;1889;50.058;8.688;2022-11-15T15:41:19;3.67;;;2.58;;
3747;SDS011;1889;50.058;8.688;2022-11-15T15:43:49;2.87;;;2.40;;
3747;SDS011;1889;50.058;8.688;2022-11-15T15:46:24;1.90;;;1.80;;
3747;SDS011;1889;50.058;8.688;2022-11-15T15:48:49;3.83;;;2.25;;
3747;SDS011;1889;50.058;8.688;2022-11-15T15:51:18;6.50;;;2.15;;
3747;SDS011;1889;50.058;8.688;2022-11-15T15:53:47;3.15;;;2.55;;
3747;SDS011;1889;50.058;8.688;2022-11-15T15:56:18;3.90;;;1.92;;
3747;SDS011;1889;50.058;8.688;2022-11-15T15:58:48;2.15;;;1.90;;
3747;SDS011;1889;50.058;8.688;2022-11-15T16:01:19;2.77;;;2.12;;
3747;SDS011;1889;50.058;8.688;2022-11-15T16:03:49;2.67;;;2.05;;
3747;SDS011;1889;50.058;8.688;2022-11-15T16:09:03;2.50;;;2.30;;
3747;SDS011;1889;50.058;8.688;2022-11-15T16:11:33;4.55;;;2.50;;
3747;SDS011;1889;50.058;8.688;2022-11-15T16:14:02;7.40;;;2.27;;
3747;SDS011;1889;50.058;8.688;2022-11-15T16:16:31;3.00;;;2.52;;
3747;SDS011;1889;50.058;8.688;2022-11-15T16:19:01;2.55;;;2.33;;
3747;SDS011;1889;50.058;8.688;2022-11-15T16:21:31;3.08;;;2.22;;
3747;SDS011;1889;50.058;8.688;2022-11-15T16:24:00;3.08;;;2.47;;
3747;SDS011;1889;50.058;8.688;2022-11-15T16:26:30;3.72;;;2.47;;
3747;SDS011;1889;50.058;8.688;2022-11-15T16:29:01;3.00;;;2.40;;
3747;SDS011;1889;50.058;8.688;2022-11-15T16:31:30;2.95;;;2.30;;
3747;SDS011;1889;50.058;8.688;2022-11-15T16:33:59;3.72;;;2.35;;
3747;SDS011;1889;50.058;8.688;2022-11-15T16:36:30;3.42;;;2.40;;
3747;SDS011;1889;50.058;8.688;2022-11-15T16:39:01;3.85;;;2.60;;
3747;SDS011;1889;50.058;8.688;2022-11-15T16:41:31;5.10;;;3.02;;
3747;SDS011;1889;50.058;8.688;2022-11-15T16:44:00;4.47;;;3.27;;
3747;SDS011;1889;50.058;8.688;2022-11-15T16:46:30;3.35;;;2.90;;
3747;SDS011;1889;50.058;8.688;2022-11-15T16:48:59;3.90;;;2.90;;
3747;SDS011;1889;50.058;8.688;2022-11-15T16:51:29;4.33;;;3.40;;
3747;SDS011;1889;50.058;8.688;2022-11-15T16:53:58;4.47;;;3.22;;
3747;SDS011;1889;50.058;8.688;2022-11-15T16:56:28;3.80;;;3.30;;
3747;SDS011;1889;50.058;8.688;2022-11-15T16:58:58;5.42;;;3.20;;
3747;SDS011;1889;50.058;8.688;2022-11-15T17:01:30;5.08;;;3.40;;
3747;SDS011;1889;50.058;8.688;2022-11-15T17:04:03;4.42;;;3.25;;
3747;SDS011;1889;50.058;8.688;2022-11-15T17:06:43;7.33;;;4.12;;
3747;SDS011;1889;50.058;8.688;2022-11-15T17:09:18;5.42;;;4.00;;
3747;SDS011;1889;50.058;8.688;2022-11-15T17:11:50;3.70;;;3.17;;
3747;SDS011;1889;50.058;8.688;2022-11-15T17:14:20;7.90;;;3.42;;
3747;SDS011;1889;50.058;8.688;2022-11-15T17:16:49;5.42;;;3.98;;
3747;SDS011;1889;50.058;8.688;2022-11-15T17:19:19;5.12;;;3.70;;
3747;SDS011;1889;50.058;8.688;2022-11-15T17:21:48;8.13;;;3.47;;